sensor_id;sensor_type;location;lat;lon;timestamp;P1;durP1;ratioP1;P2;durP2;ratioP2
787;SDS011;16074;42.708;23.312;2023-05-07T00:01:17;18.38;;;14.75;;
787;SDS011;16074;42.708;23.312;2023-05-07T00:03:47;18.20;;;16.50;;
787;SDS011;16074;42.708;23.312;2023-05-07T00:06:16;18.00;;;16.40;;
787;SDS011;16074;42.708;23.312;2023-05-07T00:08:44;19.40;;;17.60;;
787;SDS011;16074;42.708;23.312;2023-05-07T00:11:13;18.75;;;16.95;;
787;SDS011;16074;42.708;23.312;2023-05-07T00:13:41;17.80;;;16.10;;
787;SDS011;16074;42.708;23.312;2023-05-07T00:16:09;17.65;;;16.15;;
787;SDS011;16074;42.708;23.312;2023-05-07T00:18:38;18.35;;;16.63;;
787;SDS011;16074;42.708;23.312;2023-05-07T00:21:08;18.08;;;16.45;;
787;SDS011;16074;42.708;23.312;2023-05-07T00:23:37;18.65;;;16.92;;
787;SDS011;16074;42.708;23.312;2023-05-07T00:26:05;18.23;;;16.48;;
787;SDS011;16074;42.708;23.312;2023-05-07T00:28:33;18.40;;;16.70;;
787;SDS011;16074;42.708;23.312;2023-05-07T00:31:02;18.52;;;16.80;;
787;SDS011;16074;42.708;23.312;2023-05-07T00:33:30;17.38;;;15.52;;
787;SDS011;16074;42.708;23.312;2023-05-07T00:35:58;18.50;;;16.55;;
787;SDS011;16074;42.708;23.312;2023-05-07T00:38:29;18.60;;;16.77;;
787;SDS011;16074;42.708;23.312;2023-05-07T00:40:57;18.02;;;16.13;;
787;SDS011;16074;42.708;23.312;2023-05-07T00:43:25;17.10;;;15.50;;
787;SDS011;16074;42.708;23.312;2023-05-07T00:45:54;16.52;;;15.00;;
787;SDS011;16074;42.708;23.312;2023-05-07T00:48:22;15.75;;;14.23;;
787;SDS011;16074;42.708;23.312;2023-05-07T00:50:51;15.73;;;14.32;;
787;SDS011;16074;42.708;23.312;2023-05-07T00:53:19;16.30;;;14.60;;
787;SDS011;16074;42.708;23.312;2023-05-07T00:55:50;15.43;;;13.68;;
787;SDS011;16074;42.708;23.312;2023-05-07T00:58:18;16.98;;;14.38;;
787;SDS011;16074;42.708;23.312;2023-05-07T01:00:47;17.75;;;15.65;;
787;SDS011;16074;42.708;23.312;2023-05-07T01:03:16;16.50;;;14.90;;
787;SDS011;16074;42.708;23.312;2023-05-07T01:05:45;19.08;;;14.90;;
787;SDS011;16074;42.708;23.312;2023-05-07T01:08:15;15.23;;;13.93;;
787;SDS011;16074;42.708;23.312;2023-05-07T01:10:45;17.45;;;15.95;;
787;SDS011;16074;42.708;23.312;2023-05-07T01:13:15;17.63;;;14.00;;
787;SDS011;16074;42.708;23.312;2023-05-07T01:15:44;16.00;;;13.80;;
787;SDS011;16074;42.708;23.312;2023-05-07T01:18:13;17.08;;;15.68;;
787;SDS011;16074;42.708;23.312;2023-05-07T01:20:42;18.00;;;16.15;;
787;SDS011;16074;42.708;23.312;2023-05-07T01:23:11;18.30;;;16.55;;
787;SDS011;16074;42.708;23.312;2023-05-07T01:25:40;18.13;;;16.33;;
787;SDS011;16074;42.708;23.312;2023-05-07T01:28:10;17.42;;;15.82;;
787;SDS011;16074;42.708;23.312;2023-05-07T01:30:40;19.33;;;17.42;;
787;SDS011;16074;42.708;23.312;2023-05-07T01:33:13;19.50;;;17.70;;
787;SDS011;16074;42.708;23.312;2023-05-07T01:35:47;18.63;;;16.80;;
787;SDS011;16074;42.708;23.312;2023-05-07T01:38:19;19.58;;;17.58;;
787;SDS011;16074;42.708;23.312;2023-05-07T01:40:49;15.95;;;14.45;;
787;SDS011;16074;42.708;23.312;2023-05-07T01:43:18;17.90;;;15.68;;
787;SDS011;16074;42.708;23.312;2023-05-07T01:45:47;16.88;;;15.32;;
787;SDS011;16074;42.708;23.312;2023-05-07T01:48:16;17.48;;;15.20;;
787;SDS011;16074;42.708;23.312;2023-05-07T01:50:46;15.30;;;13.90;;
787;SDS011;16074;42.708;23.312;2023-05-07T01:53:15;15.02;;;13.73;;
787;SDS011;16074;42.708;23.312;2023-05-07T01:55:45;18.10;;;14.63;;
787;SDS011;16074;42.708;23.312;2023-05-07T01:58:14;14.65;;;13.30;;
787;SDS011;16074;42.708;23.312;2023-05-07T02:00:43;13.88;;;12.57;;
787;SDS011;16074;42.708;23.312;2023-05-07T02:03:11;15.25;;;13.10;;
787;SDS011;16074;42.708;23.312;2023-05-07T02:05:54;13.20;;;11.95;;
787;SDS011;16074;42.708;23.312;2023-05-07T02:08:32;15.15;;;13.75;;
787;SDS011;16074;42.708;23.312;2023-05-07T02:11:02;14.95;;;13.55;;
787;SDS011;16074;42.708;23.312;2023-05-07T02:13:31;15.23;;;12.20;;
787;SDS011;16074;42.708;23.312;2023-05-07T02:16:01;13.75;;;12.38;;
787;SDS011;16074;42.708;23.312;2023-05-07T02:18:30;17.70;;;11.77;;
787;SDS011;16074;42.708;23.312;2023-05-07T02:20:58;12.18;;;10.73;;
787;SDS011;16074;42.708;23.312;2023-05-07T02:23:27;13.75;;;11.85;;
787;SDS011;16074;42.708;23.312;2023-05-07T02:25:55;13.13;;;11.98;;
787;SDS011;16074;42.708;23.312;2023-05-07T02:28:24;13.77;;;12.38;;
787;SDS011;16074;42.708;23.312;2023-05-07T02:30:58;13.50;;;12.35;;
787;SDS011;16074;42.708;23.312;2023-05-07T02:33:28;13.32;;;12.02;;
787;SDS011;16074;42.708;23.312;2023-05-07T02:36:04;13.75;;;12.52;;
787;SDS011;16074;42.708;23.312;2023-05-07T02:38:35;13.38;;;12.23;;
787;SDS011;16074;42.708;23.312;2023-05-07T02:41:03;12.80;;;11.60;;
787;SDS011;16074;42.708;23.312;2023-05-07T02:43:34;15.25;;;13.57;;
787;SDS011;16074;42.708;23.312;2023-05-07T02:46:02;13.68;;;12.40;;
787;SDS011;16074;42.708;23.312;2023-05-07T02:48:34;15.23;;;13.75;;
787;SDS011;16074;42.708;23.312;2023-05-07T02:51:03;14.35;;;13.02;;
787;SDS011;16074;42.708;23.312;2023-05-07T02:53:33;15.32;;;13.93;;
787;SDS011;16074;42.708;23.312;2023-05-07T02:56:02;15.55;;;13.90;;
787;SDS011;16074;42.708;23.312;2023-05-07T02:58:30;15.85;;;14.25;;
787;SDS011;16074;42.708;23.312;2023-05-07T03:01:02;16.20;;;14.60;;
787;SDS011;16074;42.708;23.312;2023-05-07T03:03:38;15.73;;;13.65;;
787;SDS011;16074;42.708;23.312;2023-05-07T03:06:06;15.73;;;14.23;;
787;SDS011;16074;42.708;23.312;2023-05-07T03:08:34;16.00;;;14.40;;
787;SDS011;16074;42.708;23.312;2023-05-07T03:11:03;16.20;;;14.70;;
787;SDS011;16074;42.708;23.312;2023-05-07T03:13:31;16.63;;;15.02;;
787;SDS011;16074;42.708;23.312;2023-05-07T03:16:00;17.10;;;15.40;;
787;SDS011;16074;42.708;23.312;2023-05-07T03:18:29;17.92;;;16.02;;
787;SDS011;16074;42.708;23.312;2023-05-07T03:20:58;18.08;;;16.38;;
787;SDS011;16074;42.708;23.312;2023-05-07T03:23:26;17.90;;;15.88;;
787;SDS011;16074;42.708;23.312;2023-05-07T03:25:54;16.42;;;15.00;;
787;SDS011;16074;42.708;23.312;2023-05-07T03:28:23;18.10;;;15.85;;
787;SDS011;16074;42.708;23.312;2023-05-07T03:30:57;17.27;;;15.48;;
787;SDS011;16074;42.708;23.312;2023-05-07T03:33:26;19.15;;;17.35;;
787;SDS011;16074;42.708;23.312;2023-05-07T03:35:55;20.15;;;16.58;;
787;SDS011;16074;42.708;23.312;2023-05-07T03:38:25;19.70;;;17.95;;
787;SDS011;16074;42.708;23.312;2023-05-07T03:40:53;18.65;;;16.65;;
787;SDS011;16074;42.708;23.312;2023-05-07T03:43:22;18.65;;;16.85;;
787;SDS011;16074;42.708;23.312;2023-05-07T03:45:58;19.10;;;17.08;;
787;SDS011;16074;42.708;23.312;2023-05-07T03:48:29;20.05;;;16.30;;
787;SDS011;16074;42.708;23.312;2023-05-07T03:50:58;18.20;;;16.48;;
787;SDS011;16074;42.708;23.312;2023-05-07T03:53:30;35.50;;;16.77;;
787;SDS011;16074;42.708;23.312;2023-05-07T03:55:59;18.17;;;16.35;;
787;SDS011;16074;42.708;23.312;2023-05-07T03:58:30;19.55;;;17.55;;
787;SDS011;16074;42.708;23.312;2023-05-07T04:01:04;21.95;;;19.75;;
787;SDS011;16074;42.708;23.312;2023-05-07T04:03:33;19.02;;;17.00;;
787;SDS011;16074;42.708;23.312;2023-05-07T04:06:02;18.20;;;16.50;;
787;SDS011;16074;42.708;23.312;2023-05-07T04:08:33;19.35;;;17.55;;
787;SDS011;16074;42.708;23.312;2023-05-07T04:11:03;19.15;;;17.30;;
787;SDS011;16074;42.708;23.312;2023-05-07T04:13:32;16.88;;;15.02;;
787;SDS011;16074;42.708;23.312;2023-05-07T04:16:02;16.48;;;14.98;;
787;SDS011;16074;42.708;23.312;2023-05-07T04:18:35;17.60;;;15.95;;
787;SDS011;16074;42.708;23.312;2023-05-07T04:21:04;18.05;;;16.20;;
787;SDS011;16074;42.708;23.312;2023-05-07T04:23:36;16.67;;;15.07;;
787;SDS011;16074;42.708;23.312;2023-05-07T04:26:08;17.02;;;15.52;;
787;SDS011;16074;42.708;23.312;2023-05-07T04:28:39;19.63;;;17.73;;
787;SDS011;16074;42.708;23.312;2023-05-07T04:31:08;18.80;;;17.00;;
787;SDS011;16074;42.708;23.312;2023-05-07T04:33:39;18.00;;;16.10;;
787;SDS011;16074;42.708;23.312;2023-05-07T04:36:10;18.08;;;16.38;;
787;SDS011;16074;42.708;23.312;2023-05-07T04:38:46;20.05;;;18.08;;
787;SDS011;16074;42.708;23.312;2023-05-07T04:41:16;18.15;;;16.38;;
787;SDS011;16074;42.708;23.312;2023-05-07T04:43:45;18.05;;;16.25;;
787;SDS011;16074;42.708;23.312;2023-05-07T04:46:14;20.02;;;17.80;;
787;SDS011;16074;42.708;23.312;2023-05-07T04:48:45;18.73;;;17.05;;
787;SDS011;16074;42.708;23.312;2023-05-07T04:51:13;19.98;;;17.92;;
787;SDS011;16074;42.708;23.312;2023-05-07T04:53:42;20.67;;;18.05;;
787;SDS011;16074;42.708;23.312;2023-05-07T04:56:10;22.60;;;16.77;;
787;SDS011;16074;42.708;23.312;2023-05-07T04:58:41;20.35;;;18.25;;
787;SDS011;16074;42.708;23.312;2023-05-07T05:01:10;19.40;;;17.63;;
787;SDS011;16074;42.708;23.312;2023-05-07T05:03:39;20.17;;;17.08;;
787;SDS011;16074;42.708;23.312;2023-05-07T05:06:10;21.08;;;18.95;;
787;SDS011;16074;42.708;23.312;2023-05-07T05:08:38;18.92;;;17.20;;
787;SDS011;16074;42.708;23.312;2023-05-07T05:11:08;25.30;;;20.30;;
787;SDS011;16074;42.708;23.312;2023-05-07T05:13:36;21.90;;;19.67;;
787;SDS011;16074;42.708;23.312;2023-05-07T05:16:11;20.40;;;18.30;;
787;SDS011;16074;42.708;23.312;2023-05-07T05:18:40;19.38;;;16.52;;
787;SDS011;16074;42.708;23.312;2023-05-07T05:21:12;25.00;;;19.08;;
787;SDS011;16074;42.708;23.312;2023-05-07T05:23:41;17.67;;;15.93;;
787;SDS011;16074;42.708;23.312;2023-05-07T05:26:10;18.10;;;16.40;;
787;SDS011;16074;42.708;23.312;2023-05-07T05:28:40;18.73;;;16.83;;
787;SDS011;16074;42.708;23.312;2023-05-07T05:31:08;20.00;;;18.05;;
787;SDS011;16074;42.708;23.312;2023-05-07T05:33:36;18.80;;;16.88;;
787;SDS011;16074;42.708;23.312;2023-05-07T05:36:06;18.13;;;16.35;;
787;SDS011;16074;42.708;23.312;2023-05-07T05:38:39;18.73;;;16.92;;
787;SDS011;16074;42.708;23.312;2023-05-07T05:41:09;18.88;;;16.98;;
787;SDS011;16074;42.708;23.312;2023-05-07T05:43:37;20.38;;;18.23;;
787;SDS011;16074;42.708;23.312;2023-05-07T05:46:05;19.83;;;17.75;;
787;SDS011;16074;42.708;23.312;2023-05-07T05:48:35;21.08;;;18.85;;
787;SDS011;16074;42.708;23.312;2023-05-07T05:51:05;19.40;;;17.00;;
787;SDS011;16074;42.708;23.312;2023-05-07T05:53:33;18.67;;;17.02;;
787;SDS011;16074;42.708;23.312;2023-05-07T05:56:03;19.67;;;17.98;;
787;SDS011;16074;42.708;23.312;2023-05-07T05:58:33;19.85;;;17.83;;
787;SDS011;16074;42.708;23.312;2023-05-07T06:01:05;22.17;;;17.88;;
787;SDS011;16074;42.708;23.312;2023-05-07T06:03:35;19.10;;;17.20;;
787;SDS011;16074;42.708;23.312;2023-05-07T06:06:08;19.20;;;17.35;;
787;SDS011;16074;42.708;23.312;2023-05-07T06:08:37;19.73;;;17.58;;
787;SDS011;16074;42.708;23.312;2023-05-07T06:11:07;16.65;;;15.02;;
787;SDS011;16074;42.708;23.312;2023-05-07T06:13:37;21.30;;;18.20;;
787;SDS011;16074;42.708;23.312;2023-05-07T06:16:06;18.25;;;16.55;;
787;SDS011;16074;42.708;23.312;2023-05-07T06:18:34;18.92;;;16.98;;
787;SDS011;16074;42.708;23.312;2023-05-07T06:21:03;18.88;;;17.08;;
787;SDS011;16074;42.708;23.312;2023-05-07T06:23:33;18.73;;;16.88;;
787;SDS011;16074;42.708;23.312;2023-05-07T06:26:03;18.05;;;16.25;;
787;SDS011;16074;42.708;23.312;2023-05-07T06:28:38;19.27;;;17.23;;
787;SDS011;16074;42.708;23.312;2023-05-07T06:31:10;18.30;;;16.60;;
787;SDS011;16074;42.708;23.312;2023-05-07T06:33:41;19.73;;;17.88;;
787;SDS011;16074;42.708;23.312;2023-05-07T06:36:10;17.83;;;16.15;;
787;SDS011;16074;42.708;23.312;2023-05-07T06:38:38;18.27;;;16.58;;
787;SDS011;16074;42.708;23.312;2023-05-07T06:41:07;21.27;;;17.63;;
787;SDS011;16074;42.708;23.312;2023-05-07T06:43:39;18.13;;;16.23;;
787;SDS011;16074;42.708;23.312;2023-05-07T06:46:23;18.25;;;16.50;;
787;SDS011;16074;42.708;23.312;2023-05-07T06:48:52;17.38;;;15.52;;
787;SDS011;16074;42.708;23.312;2023-05-07T06:51:20;18.57;;;16.77;;
787;SDS011;16074;42.708;23.312;2023-05-07T06:53:49;18.07;;;16.37;;
787;SDS011;16074;42.708;23.312;2023-05-07T06:56:17;18.47;;;16.67;;
787;SDS011;16074;42.708;23.312;2023-05-07T06:58:48;16.27;;;14.77;;
787;SDS011;16074;42.708;23.312;2023-05-07T07:01:17;18.77;;;16.97;;
787;SDS011;16074;42.708;23.312;2023-05-07T07:03:45;17.57;;;15.87;;
787;SDS011;16074;42.708;23.312;2023-05-07T07:06:14;16.17;;;14.73;;
787;SDS011;16074;42.708;23.312;2023-05-07T07:08:42;16.63;;;14.50;;
787;SDS011;16074;42.708;23.312;2023-05-07T07:11:13;17.30;;;15.80;;
787;SDS011;16074;42.708;23.312;2023-05-07T07:13:43;16.43;;;14.70;;
787;SDS011;16074;42.708;23.312;2023-05-07T07:16:12;18.00;;;16.10;;
787;SDS011;16074;42.708;23.312;2023-05-07T07:18:41;17.23;;;15.63;;
787;SDS011;16074;42.708;23.312;2023-05-07T07:21:09;17.53;;;14.00;;
787;SDS011;16074;42.708;23.312;2023-05-07T07:23:37;15.00;;;13.70;;
787;SDS011;16074;42.708;23.312;2023-05-07T07:26:06;17.30;;;15.70;;
787;SDS011;16074;42.708;23.312;2023-05-07T07:28:34;17.80;;;16.20;;
787;SDS011;16074;42.708;23.312;2023-05-07T07:31:03;16.07;;;14.40;;
787;SDS011;16074;42.708;23.312;2023-05-07T07:33:33;16.20;;;14.67;;
787;SDS011;16074;42.708;23.312;2023-05-07T07:36:01;16.57;;;14.87;;
787;SDS011;16074;42.708;23.312;2023-05-07T07:38:29;15.93;;;14.53;;
787;SDS011;16074;42.708;23.312;2023-05-07T07:40:57;17.00;;;15.40;;
787;SDS011;16074;42.708;23.312;2023-05-07T07:43:27;17.23;;;15.77;;
787;SDS011;16074;42.708;23.312;2023-05-07T07:45:56;15.40;;;14.10;;
787;SDS011;16074;42.708;23.312;2023-05-07T07:48:25;15.30;;;13.80;;
787;SDS011;16074;42.708;23.312;2023-05-07T07:50:55;15.53;;;13.27;;
787;SDS011;16074;42.708;23.312;2023-05-07T07:53:24;14.10;;;12.90;;
787;SDS011;16074;42.708;23.312;2023-05-07T07:55:52;13.40;;;12.40;;
787;SDS011;16074;42.708;23.312;2023-05-07T07:58:29;13.10;;;12.10;;
787;SDS011;16074;42.708;23.312;2023-05-07T08:00:57;13.00;;;11.80;;
787;SDS011;16074;42.708;23.312;2023-05-07T08:03:26;13.50;;;12.30;;
787;SDS011;16074;42.708;23.312;2023-05-07T08:06:00;13.60;;;12.40;;
787;SDS011;16074;42.708;23.312;2023-05-07T08:08:30;15.30;;;12.90;;
787;SDS011;16074;42.708;23.312;2023-05-07T08:10:58;13.37;;;12.17;;
787;SDS011;16074;42.708;23.312;2023-05-07T08:13:31;14.10;;;12.93;;
787;SDS011;16074;42.708;23.312;2023-05-07T08:15:59;16.07;;;11.37;;
787;SDS011;16074;42.708;23.312;2023-05-07T08:18:28;13.77;;;12.57;;
787;SDS011;16074;42.708;23.312;2023-05-07T08:21:01;13.40;;;12.10;;
787;SDS011;16074;42.708;23.312;2023-05-07T08:23:31;14.03;;;12.83;;
787;SDS011;16074;42.708;23.312;2023-05-07T08:26:01;13.00;;;11.87;;
787;SDS011;16074;42.708;23.312;2023-05-07T08:28:30;13.00;;;11.90;;
787;SDS011;16074;42.708;23.312;2023-05-07T08:30:58;14.93;;;11.80;;
787;SDS011;16074;42.708;23.312;2023-05-07T08:33:32;12.27;;;11.37;;
787;SDS011;16074;42.708;23.312;2023-05-07T08:36:01;13.20;;;11.47;;
787;SDS011;16074;42.708;23.312;2023-05-07T08:38:31;11.80;;;10.80;;
787;SDS011;16074;42.708;23.312;2023-05-07T08:41:00;12.60;;;11.70;;
787;SDS011;16074;42.708;23.312;2023-05-07T08:43:30;12.77;;;11.27;;
787;SDS011;16074;42.708;23.312;2023-05-07T08:46:01;12.47;;;11.10;;
787;SDS011;16074;42.708;23.312;2023-05-07T08:48:37;11.73;;;10.83;;
787;SDS011;16074;42.708;23.312;2023-05-07T08:51:13;10.57;;;9.67;;
787;SDS011;16074;42.708;23.312;2023-05-07T08:53:45;9.73;;;8.93;;
787;SDS011;16074;42.708;23.312;2023-05-07T08:56:19;8.90;;;8.30;;
787;SDS011;16074;42.708;23.312;2023-05-07T08:58:50;10.10;;;9.20;;
787;SDS011;16074;42.708;23.312;2023-05-07T09:01:23;10.80;;;9.93;;
787;SDS011;16074;42.708;23.312;2023-05-07T09:03:54;8.73;;;7.93;;
787;SDS011;16074;42.708;23.312;2023-05-07T09:06:24;9.00;;;7.43;;
787;SDS011;16074;42.708;23.312;2023-05-07T09:08:53;7.27;;;6.67;;
787;SDS011;16074;42.708;23.312;2023-05-07T09:11:25;8.40;;;7.80;;
787;SDS011;16074;42.708;23.312;2023-05-07T09:13:57;8.90;;;8.10;;
787;SDS011;16074;42.708;23.312;2023-05-07T09:16:31;8.87;;;8.00;;
787;SDS011;16074;42.708;23.312;2023-05-07T09:19:00;8.10;;;7.50;;
787;SDS011;16074;42.708;23.312;2023-05-07T09:21:30;8.63;;;7.83;;
787;SDS011;16074;42.708;23.312;2023-05-07T09:24:01;8.20;;;7.70;;
787;SDS011;16074;42.708;23.312;2023-05-07T09:26:35;8.50;;;7.70;;
787;SDS011;16074;42.708;23.312;2023-05-07T09:29:04;6.77;;;6.37;;
787;SDS011;16074;42.708;23.312;2023-05-07T09:31:35;7.77;;;7.20;;
787;SDS011;16074;42.708;23.312;2023-05-07T09:34:05;8.63;;;7.93;;
787;SDS011;16074;42.708;23.312;2023-05-07T09:36:38;8.47;;;7.77;;
787;SDS011;16074;42.708;23.312;2023-05-07T09:39:07;7.33;;;6.83;;
787;SDS011;16074;42.708;23.312;2023-05-07T09:41:42;9.27;;;8.57;;
787;SDS011;16074;42.708;23.312;2023-05-07T09:44:33;7.67;;;7.07;;
787;SDS011;16074;42.708;23.312;2023-05-07T09:47:05;7.73;;;7.13;;
787;SDS011;16074;42.708;23.312;2023-05-07T09:49:40;7.10;;;6.30;;
787;SDS011;16074;42.708;23.312;2023-05-07T09:52:19;8.23;;;7.63;;
787;SDS011;16074;42.708;23.312;2023-05-07T09:54:51;7.23;;;6.60;;
787;SDS011;16074;42.708;23.312;2023-05-07T09:57:24;7.20;;;6.53;;
787;SDS011;16074;42.708;23.312;2023-05-07T09:59:58;7.03;;;6.30;;
787;SDS011;16074;42.708;23.312;2023-05-07T10:02:35;6.67;;;6.17;;
787;SDS011;16074;42.708;23.312;2023-05-07T10:05:04;6.73;;;6.03;;
787;SDS011;16074;42.708;23.312;2023-05-07T10:07:35;6.70;;;6.30;;
787;SDS011;16074;42.708;23.312;2023-05-07T10:10:07;6.77;;;6.27;;
787;SDS011;16074;42.708;23.312;2023-05-07T10:12:41;7.37;;;6.47;;
787;SDS011;16074;42.708;23.312;2023-05-07T10:15:15;6.07;;;5.67;;
787;SDS011;16074;42.708;23.312;2023-05-07T10:17:48;6.37;;;5.97;;
787;SDS011;16074;42.708;23.312;2023-05-07T10:20:17;5.60;;;5.20;;
787;SDS011;16074;42.708;23.312;2023-05-07T10:22:48;6.37;;;5.30;;
787;SDS011;16074;42.708;23.312;2023-05-07T10:25:25;5.77;;;5.47;;
787;SDS011;16074;42.708;23.312;2023-05-07T10:28:03;5.30;;;4.90;;
787;SDS011;16074;42.708;23.312;2023-05-07T10:30:39;4.63;;;4.30;;
787;SDS011;16074;42.708;23.312;2023-05-07T10:33:17;5.80;;;5.30;;
787;SDS011;16074;42.708;23.312;2023-05-07T10:35:50;6.10;;;5.70;;
787;SDS011;16074;42.708;23.312;2023-05-07T10:38:20;6.07;;;5.67;;
787;SDS011;16074;42.708;23.312;2023-05-07T10:40:50;6.70;;;5.40;;
787;SDS011;16074;42.708;23.312;2023-05-07T10:43:18;6.10;;;5.40;;
787;SDS011;16074;42.708;23.312;2023-05-07T10:46:14;6.43;;;5.30;;
787;SDS011;16074;42.708;23.312;2023-05-07T10:52:04;5.60;;;5.33;;
787;SDS011;16074;42.708;23.312;2023-05-07T10:54:42;5.97;;;5.67;;
787;SDS011;16074;42.708;23.312;2023-05-07T10:57:33;6.17;;;5.87;;
787;SDS011;16074;42.708;23.312;2023-05-07T11:00:41;5.90;;;5.60;;
787;SDS011;16074;42.708;23.312;2023-05-07T11:03:18;5.47;;;5.17;;
787;SDS011;16074;42.708;23.312;2023-05-07T11:08:55;5.93;;;5.53;;
787;SDS011;16074;42.708;23.312;2023-05-07T11:11:45;6.90;;;6.33;;
787;SDS011;16074;42.708;23.312;2023-05-07T11:17:17;5.37;;;5.07;;
787;SDS011;16074;42.708;23.312;2023-05-07T11:19:52;6.00;;;5.60;;
787;SDS011;16074;42.708;23.312;2023-05-07T11:23:00;5.47;;;5.00;;
787;SDS011;16074;42.708;23.312;2023-05-07T11:25:44;5.13;;;4.83;;
787;SDS011;16074;42.708;23.312;2023-05-07T11:28:19;4.40;;;4.20;;
787;SDS011;16074;42.708;23.312;2023-05-07T11:30:58;5.00;;;4.80;;
787;SDS011;16074;42.708;23.312;2023-05-07T11:33:27;5.17;;;4.77;;
787;SDS011;16074;42.708;23.312;2023-05-07T11:35:57;5.60;;;5.30;;
787;SDS011;16074;42.708;23.312;2023-05-07T11:38:34;5.17;;;4.77;;
787;SDS011;16074;42.708;23.312;2023-05-07T11:41:06;5.53;;;5.30;;
787;SDS011;16074;42.708;23.312;2023-05-07T11:43:36;5.17;;;4.97;;
787;SDS011;16074;42.708;23.312;2023-05-07T11:46:07;6.93;;;6.30;;
787;SDS011;16074;42.708;23.312;2023-05-07T11:48:37;6.03;;;5.63;;
787;SDS011;16074;42.708;23.312;2023-05-07T11:51:06;5.23;;;5.03;;
787;SDS011;16074;42.708;23.312;2023-05-07T11:53:35;5.73;;;5.37;;
787;SDS011;16074;42.708;23.312;2023-05-07T11:56:06;7.10;;;6.50;;
787;SDS011;16074;42.708;23.312;2023-05-07T11:58:34;6.13;;;5.63;;
787;SDS011;16074;42.708;23.312;2023-05-07T12:01:06;6.50;;;5.20;;
787;SDS011;16074;42.708;23.312;2023-05-07T12:03:36;5.20;;;4.90;;
787;SDS011;16074;42.708;23.312;2023-05-07T12:06:05;5.03;;;4.67;;
787;SDS011;16074;42.708;23.312;2023-05-07T12:08:36;4.60;;;4.30;;
787;SDS011;16074;42.708;23.312;2023-05-07T12:11:06;5.03;;;4.63;;
787;SDS011;16074;42.708;23.312;2023-05-07T12:13:37;4.50;;;4.30;;
787;SDS011;16074;42.708;23.312;2023-05-07T12:16:06;3.80;;;3.60;;
787;SDS011;16074;42.708;23.312;2023-05-07T12:18:35;4.50;;;4.20;;
787;SDS011;16074;42.708;23.312;2023-05-07T12:21:04;3.80;;;3.70;;
787;SDS011;16074;42.708;23.312;2023-05-07T12:23:34;3.87;;;3.40;;
787;SDS011;16074;42.708;23.312;2023-05-07T12:26:04;4.70;;;4.50;;
787;SDS011;16074;42.708;23.312;2023-05-07T12:28:38;5.00;;;4.60;;
787;SDS011;16074;42.708;23.312;2023-05-07T12:31:07;3.93;;;3.73;;
787;SDS011;16074;42.708;23.312;2023-05-07T12:33:35;3.93;;;3.73;;
787;SDS011;16074;42.708;23.312;2023-05-07T12:36:05;4.97;;;4.43;;
787;SDS011;16074;42.708;23.312;2023-05-07T12:38:35;4.40;;;4.20;;
787;SDS011;16074;42.708;23.312;2023-05-07T12:41:04;4.67;;;4.00;;
787;SDS011;16074;42.708;23.312;2023-05-07T12:43:34;4.40;;;4.20;;
787;SDS011;16074;42.708;23.312;2023-05-07T12:46:05;4.57;;;4.37;;
787;SDS011;16074;42.708;23.312;2023-05-07T12:48:36;4.20;;;4.00;;
787;SDS011;16074;42.708;23.312;2023-05-07T12:51:05;4.30;;;4.00;;
787;SDS011;16074;42.708;23.312;2023-05-07T12:53:39;4.63;;;4.43;;
787;SDS011;16074;42.708;23.312;2023-05-07T12:56:08;4.97;;;4.60;;
787;SDS011;16074;42.708;23.312;2023-05-07T12:58:37;4.50;;;4.13;;
787;SDS011;16074;42.708;23.312;2023-05-07T13:01:07;4.77;;;4.57;;
787;SDS011;16074;42.708;23.312;2023-05-07T13:03:37;5.03;;;4.60;;
787;SDS011;16074;42.708;23.312;2023-05-07T13:06:06;4.20;;;3.90;;
787;SDS011;16074;42.708;23.312;2023-05-07T13:08:39;4.20;;;4.00;;
787;SDS011;16074;42.708;23.312;2023-05-07T13:11:10;5.50;;;5.20;;
787;SDS011;16074;42.708;23.312;2023-05-07T13:13:40;3.83;;;3.73;;
787;SDS011;16074;42.708;23.312;2023-05-07T13:16:10;4.80;;;4.60;;
787;SDS011;16074;42.708;23.312;2023-05-07T13:18:39;4.47;;;4.27;;
787;SDS011;16074;42.708;23.312;2023-05-07T13:21:10;5.17;;;4.73;;
787;SDS011;16074;42.708;23.312;2023-05-07T13:23:39;5.23;;;4.90;;
787;SDS011;16074;42.708;23.312;2023-05-07T13:26:08;4.90;;;4.70;;
787;SDS011;16074;42.708;23.312;2023-05-07T13:28:51;5.10;;;4.83;;
787;SDS011;16074;42.708;23.312;2023-05-07T13:31:21;5.07;;;4.77;;
787;SDS011;16074;42.708;23.312;2023-05-07T13:33:50;4.47;;;4.27;;
787;SDS011;16074;42.708;23.312;2023-05-07T13:36:19;4.30;;;4.10;;
787;SDS011;16074;42.708;23.312;2023-05-07T13:38:49;5.17;;;4.87;;
787;SDS011;16074;42.708;23.312;2023-05-07T13:41:18;4.17;;;3.97;;
787;SDS011;16074;42.708;23.312;2023-05-07T13:43:47;4.97;;;4.50;;
787;SDS011;16074;42.708;23.312;2023-05-07T13:46:15;4.70;;;4.50;;
787;SDS011;16074;42.708;23.312;2023-05-07T13:48:45;4.63;;;4.43;;
787;SDS011;16074;42.708;23.312;2023-05-07T13:51:14;5.37;;;4.90;;
787;SDS011;16074;42.708;23.312;2023-05-07T13:53:42;4.90;;;4.60;;
787;SDS011;16074;42.708;23.312;2023-05-07T13:56:10;4.87;;;4.47;;
787;SDS011;16074;42.708;23.312;2023-05-07T13:58:38;5.70;;;5.40;;
787;SDS011;16074;42.708;23.312;2023-05-07T14:01:22;4.80;;;4.60;;
787;SDS011;16074;42.708;23.312;2023-05-07T14:03:51;5.03;;;4.73;;
787;SDS011;16074;42.708;23.312;2023-05-07T14:06:20;4.80;;;4.60;;
787;SDS011;16074;42.708;23.312;2023-05-07T14:08:48;4.30;;;4.10;;
787;SDS011;16074;42.708;23.312;2023-05-07T14:11:17;5.67;;;5.37;;
787;SDS011;16074;42.708;23.312;2023-05-07T14:13:45;4.50;;;4.30;;
787;SDS011;16074;42.708;23.312;2023-05-07T14:16:13;4.63;;;4.33;;
787;SDS011;16074;42.708;23.312;2023-05-07T14:18:41;5.47;;;5.17;;
787;SDS011;16074;42.708;23.312;2023-05-07T14:21:11;5.03;;;4.63;;
787;SDS011;16074;42.708;23.312;2023-05-07T14:23:39;5.23;;;4.50;;
787;SDS011;16074;42.708;23.312;2023-05-07T14:26:09;4.93;;;4.63;;
787;SDS011;16074;42.708;23.312;2023-05-07T14:28:37;5.10;;;4.90;;
787;SDS011;16074;42.708;23.312;2023-05-07T14:31:07;4.50;;;4.30;;
787;SDS011;16074;42.708;23.312;2023-05-07T14:33:36;5.30;;;4.90;;
787;SDS011;16074;42.708;23.312;2023-05-07T14:36:07;5.00;;;4.67;;
787;SDS011;16074;42.708;23.312;2023-05-07T14:38:37;5.10;;;4.70;;
787;SDS011;16074;42.708;23.312;2023-05-07T14:41:06;5.07;;;4.77;;
787;SDS011;16074;42.708;23.312;2023-05-07T14:43:34;5.10;;;4.90;;
787;SDS011;16074;42.708;23.312;2023-05-07T14:46:02;4.67;;;4.27;;
787;SDS011;16074;42.708;23.312;2023-05-07T14:48:31;4.77;;;4.57;;
787;SDS011;16074;42.708;23.312;2023-05-07T14:50:59;5.43;;;4.27;;
787;SDS011;16074;42.708;23.312;2023-05-07T14:53:27;6.13;;;5.83;;
787;SDS011;16074;42.708;23.312;2023-05-07T14:55:56;4.90;;;4.67;;
787;SDS011;16074;42.708;23.312;2023-05-07T14:58:25;5.10;;;4.70;;
787;SDS011;16074;42.708;23.312;2023-05-07T15:00:53;5.10;;;4.90;;
787;SDS011;16074;42.708;23.312;2023-05-07T15:03:21;5.40;;;4.90;;
787;SDS011;16074;42.708;23.312;2023-05-07T15:05:50;4.93;;;4.63;;
787;SDS011;16074;42.708;23.312;2023-05-07T15:08:18;5.20;;;4.90;;
787;SDS011;16074;42.708;23.312;2023-05-07T15:10:46;5.53;;;5.10;;
787;SDS011;16074;42.708;23.312;2023-05-07T15:13:16;6.17;;;5.80;;
787;SDS011;16074;42.708;23.312;2023-05-07T15:15:44;5.90;;;5.50;;